sensor_id;sensor_type;location;lat;lon;timestamp;temperature;humidity
7196;DHT22;3639;51.308;5.624;2022-12-07T00:01:35;4.40;99.90
7196;DHT22;3639;51.308;5.624;2022-12-07T00:04:02;4.40;99.90
7196;DHT22;3639;51.308;5.624;2022-12-07T00:06:33;4.30;99.90
7196;DHT22;3639;51.308;5.624;2022-12-07T00:08:59;4.40;99.90
7196;DHT22;3639;51.308;5.624;2022-12-07T00:11:25;4.40;99.90
7196;DHT22;3639;51.308;5.624;2022-12-07T00:13:53;4.40;99.90
7196;DHT22;3639;51.308;5.624;2022-12-07T00:16:20;4.30;99.90
7196;DHT22;3639;51.308;5.624;2022-12-07T00:18:46;4.30;99.90
7196;DHT22;3639;51.308;5.624;2022-12-07T00:21:14;4.30;99.90
7196;DHT22;3639;51.308;5.624;2022-12-07T00:23:42;4.20;99.90
7196;DHT22;3639;51.308;5.624;2022-12-07T00:26:17;4.20;99.90
7196;DHT22;3639;51.308;5.624;2022-12-07T00:28:47;4.20;99.90
7196;DHT22;3639;51.308;5.624;2022-12-07T00:31:14;4.20;99.90
7196;DHT22;3639;51.308;5.624;2022-12-07T00:33:40;4.20;99.90
7196;DHT22;3639;51.308;5.624;2022-12-07T00:36:13;4.20;99.90
7196;DHT22;3639;51.308;5.624;2022-12-07T00:38:39;4.20;99.90
7196;DHT22;3639;51.308;5.624;2022-12-07T00:41:11;4.20;99.90
7196;DHT22;3639;51.308;5.624;2022-12-07T00:43:37;4.20;99.90
7196;DHT22;3639;51.308;5.624;2022-12-07T00:46:02;4.10;99.90
7196;DHT22;3639;51.308;5.624;2022-12-07T00:48:28;4.10;99.90
7196;DHT22;3639;51.308;5.624;2022-12-07T00:50:55;4.10;99.90
7196;DHT22;3639;51.308;5.624;2022-12-07T00:53:20;4.00;99.90
7196;DHT22;3639;51.308;5.624;2022-12-07T00:55:46;4.00;99.90
7196;DHT22;3639;51.308;5.624;2022-12-07T00:58:12;3.90;99.90
7196;DHT22;3639;51.308;5.624;2022-12-07T01:00:39;3.90;99.90
7196;DHT22;3639;51.308;5.624;2022-12-07T01:03:07;3.90;99.90
7196;DHT22;3639;51.308;5.624;2022-12-07T01:05:33;3.80;99.90
7196;DHT22;3639;51.308;5.624;2022-12-07T01:07:59;3.80;99.90
7196;DHT22;3639;51.308;5.624;2022-12-07T01:10:25;3.80;99.90
7196;DHT22;3639;51.308;5.624;2022-12-07T01:12:51;3.70;99.90
7196;DHT22;3639;51.308;5.624;2022-12-07T01:15:16;3.70;99.90
7196;DHT22;3639;51.308;5.624;2022-12-07T01:17:42;3.70;99.90
7196;DHT22;3639;51.308;5.624;2022-12-07T01:20:08;3.80;99.90
7196;DHT22;3639;51.308;5.624;2022-12-07T01:22:38;3.70;99.90
7196;DHT22;3639;51.308;5.624;2022-12-07T01:25:05;3.70;99.90
7196;DHT22;3639;51.308;5.624;2022-12-07T01:27:32;3.70;99.90
7196;DHT22;3639;51.308;5.624;2022-12-07T01:29:57;3.70;99.90
7196;DHT22;3639;51.308;5.624;2022-12-07T01:32:23;3.60;99.90
7196;DHT22;3639;51.308;5.624;2022-12-07T01:34:48;3.60;99.90
7196;DHT22;3639;51.308;5.624;2022-12-07T01:37:14;3.60;99.90
7196;DHT22;3639;51.308;5.624;2022-12-07T01:39:40;3.60;99.90
7196;DHT22;3639;51.308;5.624;2022-12-07T01:42:12;3.60;99.90
7196;DHT22;3639;51.308;5.624;2022-12-07T01:45:31;3.60;99.90
7196;DHT22;3639;51.308;5.624;2022-12-07T01:47:58;3.60;99.90
7196;DHT22;3639;51.308;5.624;2022-12-07T01:50:26;3.70;99.90
7196;DHT22;3639;51.308;5.624;2022-12-07T01:52:54;3.70;99.90
7196;DHT22;3639;51.308;5.624;2022-12-07T01:55:21;3.60;99.90
7196;DHT22;3639;51.308;5.624;2022-12-07T01:57:50;3.60;99.90
7196;DHT22;3639;51.308;5.624;2022-12-07T02:00:17;3.60;99.90
7196;DHT22;3639;51.308;5.624;2022-12-07T02:05:24;3.70;99.90
7196;DHT22;3639;51.308;5.624;2022-12-07T02:07:52;3.70;99.90
7196;DHT22;3639;51.308;5.624;2022-12-07T02:10:23;3.70;99.90
7196;DHT22;3639;51.308;5.624;2022-12-07T02:12:57;3.70;99.90
7196;DHT22;3639;51.308;5.624;2022-12-07T02:15:33;3.80;99.90
7196;DHT22;3639;51.308;5.624;2022-12-07T02:31:51;3.90;99.90
7196;DHT22;3639;51.308;5.624;2022-12-07T02:34:30;3.90;99.90
7196;DHT22;3639;51.308;5.624;2022-12-07T02:37:01;3.90;99.90
7196;DHT22;3639;51.308;5.624;2022-12-07T02:39:40;3.90;99.90
7196;DHT22;3639;51.308;5.624;2022-12-07T02:42:14;3.80;99.90
7196;DHT22;3639;51.308;5.624;2022-12-07T02:44:41;3.90;99.90
7196;DHT22;3639;51.308;5.624;2022-12-07T02:47:10;4.00;99.90
7196;DHT22;3639;51.308;5.624;2022-12-07T02:49:38;4.00;99.90
7196;DHT22;3639;51.308;5.624;2022-12-07T02:52:05;4.10;99.90
7196;DHT22;3639;51.308;5.624;2022-12-07T02:54:31;4.20;99.90
7196;DHT22;3639;51.308;5.624;2022-12-07T02:57:13;4.10;99.90
7196;DHT22;3639;51.308;5.624;2022-12-07T03:05:53;4.20;99.90
7196;DHT22;3639;51.308;5.624;2022-12-07T03:11:07;4.10;99.90
7196;DHT22;3639;51.308;5.624;2022-12-07T03:16:43;4.00;99.90
7196;DHT22;3639;51.308;5.624;2022-12-07T03:19:15;3.90;99.90
7196;DHT22;3639;51.308;5.624;2022-12-07T03:22:12;3.80;99.90
7196;DHT22;3639;51.308;5.624;2022-12-07T03:24:43;3.70;99.90
7196;DHT22;3639;51.308;5.624;2022-12-07T03:27:18;3.70;99.90
7196;DHT22;3639;51.308;5.624;2022-12-07T03:29:59;3.60;99.90
7196;DHT22;3639;51.308;5.624;2022-12-07T03:32:50;3.60;99.90
7196;DHT22;3639;51.308;5.624;2022-12-07T03:35:19;3.60;99.90
7196;DHT22;3639;51.308;5.624;2022-12-07T03:40:43;3.60;99.90
7196;DHT22;3639;51.308;5.624;2022-12-07T03:43:10;3.50;99.90
7196;DHT22;3639;51.308;5.624;2022-12-07T03:45:42;3.60;99.90
7196;DHT22;3639;51.308;5.624;2022-12-07T03:48:35;3.70;99.90
7196;DHT22;3639;51.308;5.624;2022-12-07T03:51:22;3.70;99.90
7196;DHT22;3639;51.308;5.624;2022-12-07T03:54:07;3.70;99.90
7196;DHT22;3639;51.308;5.624;2022-12-07T03:56:35;3.70;99.90
7196;DHT22;3639;51.308;5.624;2022-12-07T03:59:01;3.70;99.90
7196;DHT22;3639;51.308;5.624;2022-12-07T04:01:27;3.70;99.90
7196;DHT22;3639;51.308;5.624;2022-12-07T04:03:53;3.70;99.90
7196;DHT22;3639;51.308;5.624;2022-12-07T04:06:19;3.70;99.90
7196;DHT22;3639;51.308;5.624;2022-12-07T04:08:44;3.70;99.90
7196;DHT22;3639;51.308;5.624;2022-12-07T04:11:10;3.70;99.90
7196;DHT22;3639;51.308;5.624;2022-12-07T04:13:35;3.70;99.90
7196;DHT22;3639;51.308;5.624;2022-12-07T04:16:21;3.80;99.90
7196;DHT22;3639;51.308;5.624;2022-12-07T04:18:47;3.80;99.90
7196;DHT22;3639;51.308;5.624;2022-12-07T04:21:12;3.80;99.90
7196;DHT22;3639;51.308;5.624;2022-12-07T04:23:38;3.90;99.90
7196;DHT22;3639;51.308;5.624;2022-12-07T04:26:04;3.90;99.90
7196;DHT22;3639;51.308;5.624;2022-12-07T04:28:29;4.00;99.90
7196;DHT22;3639;51.308;5.624;2022-12-07T04:30:55;4.00;99.90
7196;DHT22;3639;51.308;5.624;2022-12-07T04:33:20;4.00;99.90
7196;DHT22;3639;51.308;5.624;2022-12-07T04:35:46;4.00;99.90
7196;DHT22;3639;51.308;5.624;2022-12-07T04:38:12;4.00;99.90
7196;DHT22;3639;51.308;5.624;2022-12-07T04:40:37;4.00;99.90
7196;DHT22;3639;51.308;5.624;2022-12-07T04:43:03;4.00;99.90
7196;DHT22;3639;51.308;5.624;2022-12-07T04:45:30;4.10;99.90
7196;DHT22;3639;51.308;5.624;2022-12-07T04:47:55;4.10;99.90
7196;DHT22;3639;51.308;5.624;2022-12-07T04:50:21;4.00;99.90
7196;DHT22;3639;51.308;5.624;2022-12-07T04:52:46;4.10;99.90
7196;DHT22;3639;51.308;5.624;2022-12-07T04:55:12;4.10;99.90
7196;DHT22;3639;51.308;5.624;2022-12-07T04:57:38;4.10;99.90
7196;DHT22;3639;51.308;5.624;2022-12-07T05:00:04;4.10;99.90
7196;DHT22;3639;51.308;5.624;2022-12-07T05:02:30;4.10;99.90
7196;DHT22;3639;51.308;5.624;2022-12-07T05:04:55;4.10;99.90
7196;DHT22;3639;51.308;5.624;2022-12-07T05:07:21;4.10;99.90
7196;DHT22;3639;51.308;5.624;2022-12-07T05:09:46;4.10;99.90
7196;DHT22;3639;51.308;5.624;2022-12-07T05:12:12;4.20;99.90
7196;DHT22;3639;51.308;5.624;2022-12-07T05:14:38;4.10;99.90
7196;DHT22;3639;51.308;5.624;2022-12-07T05:17:03;4.10;99.90
7196;DHT22;3639;51.308;5.624;2022-12-07T05:19:29;4.20;99.90
7196;DHT22;3639;51.308;5.624;2022-12-07T05:21:55;4.10;99.90
7196;DHT22;3639;51.308;5.624;2022-12-07T05:24:20;4.20;99.90
7196;DHT22;3639;51.308;5.624;2022-12-07T05:26:46;4.10;99.90
7196;DHT22;3639;51.308;5.624;2022-12-07T05:29:14;4.10;99.90
7196;DHT22;3639;51.308;5.624;2022-12-07T05:31:40;4.20;99.90
7196;DHT22;3639;51.308;5.624;2022-12-07T05:34:06;4.30;99.90
7196;DHT22;3639;51.308;5.624;2022-12-07T05:36:31;4.20;99.90
7196;DHT22;3639;51.308;5.624;2022-12-07T05:38:57;4.20;99.90
7196;DHT22;3639;51.308;5.624;2022-12-07T05:41:23;4.20;99.90
7196;DHT22;3639;51.308;5.624;2022-12-07T05:44:07;4.20;99.90
7196;DHT22;3639;51.308;5.624;2022-12-07T05:46:33;4.30;99.90
7196;DHT22;3639;51.308;5.624;2022-12-07T05:48:59;4.30;99.90
7196;DHT22;3639;51.308;5.624;2022-12-07T05:51:25;4.30;99.90
7196;DHT22;3639;51.308;5.624;2022-12-07T05:53:51;4.30;99.90
7196;DHT22;3639;51.308;5.624;2022-12-07T05:56:16;4.30;99.90
7196;DHT22;3639;51.308;5.624;2022-12-07T05:58:42;4.30;99.90
7196;DHT22;3639;51.308;5.624;2022-12-07T06:01:26;4.20;99.90
7196;DHT22;3639;51.308;5.624;2022-12-07T06:03:52;4.20;99.90
7196;DHT22;3639;51.308;5.624;2022-12-07T06:06:17;4.20;99.90
7196;DHT22;3639;51.308;5.624;2022-12-07T06:08:43;4.20;99.90
7196;DHT22;3639;51.308;5.624;2022-12-07T06:11:09;4.10;99.90
7196;DHT22;3639;51.308;5.624;2022-12-07T06:13:53;4.10;99.90
7196;DHT22;3639;51.308;5.624;2022-12-07T06:16:18;4.10;99.90
7196;DHT22;3639;51.308;5.624;2022-12-07T06:18:44;4.10;99.90
7196;DHT22;3639;51.308;5.624;2022-12-07T06:21:09;3.90;99.90
7196;DHT22;3639;51.308;5.624;2022-12-07T06:23:35;3.90;99.90
7196;DHT22;3639;51.308;5.624;2022-12-07T06:26:01;3.90;99.90
7196;DHT22;3639;51.308;5.624;2022-12-07T06:28:26;3.80;99.90
7196;DHT22;3639;51.308;5.624;2022-12-07T06:30:59;3.80;99.90
7196;DHT22;3639;51.308;5.624;2022-12-07T06:33:25;3.70;99.90
7196;DHT22;3639;51.308;5.624;2022-12-07T06:35:51;3.70;99.90
7196;DHT22;3639;51.308;5.624;2022-12-07T06:38:16;3.60;99.90
7196;DHT22;3639;51.308;5.624;2022-12-07T06:40:42;3.60;99.90
7196;DHT22;3639;51.308;5.624;2022-12-07T06:43:08;3.60;99.90
7196;DHT22;3639;51.308;5.624;2022-12-07T06:45:33;3.50;99.90
7196;DHT22;3639;51.308;5.624;2022-12-07T06:47:59;3.50;99.90
7196;DHT22;3639;51.308;5.624;2022-12-07T06:50:24;3.50;99.90
7196;DHT22;3639;51.308;5.624;2022-12-07T06:52:51;3.50;99.90
7196;DHT22;3639;51.308;5.624;2022-12-07T06:55:16;3.50;99.90
7196;DHT22;3639;51.308;5.624;2022-12-07T06:57:42;3.40;99.90
7196;DHT22;3639;51.308;5.624;2022-12-07T07:00:08;3.40;99.90
7196;DHT22;3639;51.308;5.624;2022-12-07T07:02:34;3.40;99.90
7196;DHT22;3639;51.308;5.624;2022-12-07T07:04:59;3.30;99.90
7196;DHT22;3639;51.308;5.624;2022-12-07T07:07:25;3.40;99.90
7196;DHT22;3639;51.308;5.624;2022-12-07T07:09:50;3.40;99.90
7196;DHT22;3639;51.308;5.624;2022-12-07T07:12:16;3.50;99.90
7196;DHT22;3639;51.308;5.624;2022-12-07T07:14:42;3.50;99.90
7196;DHT22;3639;51.308;5.624;2022-12-07T07:17:08;3.50;99.90
7196;DHT22;3639;51.308;5.624;2022-12-07T07:19:34;3.50;99.90
7196;DHT22;3639;51.308;5.624;2022-12-07T07:21:59;3.50;99.90
7196;DHT22;3639;51.308;5.624;2022-12-07T07:24:25;3.50;99.90
7196;DHT22;3639;51.308;5.624;2022-12-07T07:26:51;3.50;99.90
7196;DHT22;3639;51.308;5.624;2022-12-07T07:29:17;3.50;99.90
7196;DHT22;3639;51.308;5.624;2022-12-07T07:31:42;3.50;99.90
7196;DHT22;3639;51.308;5.624;2022-12-07T07:34:08;3.50;99.90
7196;DHT22;3639;51.308;5.624;2022-12-07T07:36:33;3.50;99.90
7196;DHT22;3639;51.308;5.624;2022-12-07T07:38:59;3.40;99.90
7196;DHT22;3639;51.308;5.624;2022-12-07T07:41:25;3.50;99.90
7196;DHT22;3639;51.308;5.624;2022-12-07T07:43:50;3.40;99.90
7196;DHT22;3639;51.308;5.624;2022-12-07T07:46:16;3.50;99.90
7196;DHT22;3639;51.308;5.624;2022-12-07T07:48:41;3.60;99.90
7196;DHT22;3639;51.308;5.624;2022-12-07T07:51:07;3.70;99.90
7196;DHT22;3639;51.308;5.624;2022-12-07T07:53:33;3.70;99.90
7196;DHT22;3639;51.308;5.624;2022-12-07T07:55:59;3.70;99.90
7196;DHT22;3639;51.308;5.624;2022-12-07T07:58:25;3.70;99.90
7196;DHT22;3639;51.308;5.624;2022-12-07T08:00:51;3.70;99.90
7196;DHT22;3639;51.308;5.624;2022-12-07T08:03:16;3.60;99.90
7196;DHT22;3639;51.308;5.624;2022-12-07T08:05:42;3.70;99.90
7196;DHT22;3639;51.308;5.624;2022-12-07T08:08:08;3.70;99.90
7196;DHT22;3639;51.308;5.624;2022-12-07T08:10:33;3.70;99.90
7196;DHT22;3639;51.308;5.624;2022-12-07T08:13:01;3.70;99.90
7196;DHT22;3639;51.308;5.624;2022-12-07T08:15:44;3.70;99.90
7196;DHT22;3639;51.308;5.624;2022-12-07T08:18:11;3.70;99.90
7196;DHT22;3639;51.308;5.624;2022-12-07T08:20:38;3.60;99.90
7196;DHT22;3639;51.308;5.624;2022-12-07T08:23:05;3.60;99.90
7196;DHT22;3639;51.308;5.624;2022-12-07T08:25:32;3.70;99.90
7196;DHT22;3639;51.308;5.624;2022-12-07T08:27:57;3.70;99.90
7196;DHT22;3639;51.308;5.624;2022-12-07T08:30:23;3.80;99.90
7196;DHT22;3639;51.308;5.624;2022-12-07T08:32:49;3.90;99.90
7196;DHT22;3639;51.308;5.624;2022-12-07T08:35:15;4.10;99.90
7196;DHT22;3639;51.308;5.624;2022-12-07T08:37:41;4.20;99.90
7196;DHT22;3639;51.308;5.624;2022-12-07T08:40:08;4.30;99.90
7196;DHT22;3639;51.308;5.624;2022-12-07T08:42:34;4.30;99.90
7196;DHT22;3639;51.308;5.624;2022-12-07T08:45:06;4.30;99.90
7196;DHT22;3639;51.308;5.624;2022-12-07T08:47:33;4.20;99.90
7196;DHT22;3639;51.308;5.624;2022-12-07T08:50:01;4.30;99.90
7196;DHT22;3639;51.308;5.624;2022-12-07T08:52:30;4.30;99.90
7196;DHT22;3639;51.308;5.624;2022-12-07T08:54:56;4.30;99.90
7196;DHT22;3639;51.308;5.624;2022-12-07T08:57:23;4.40;99.90
7196;DHT22;3639;51.308;5.624;2022-12-07T08:59:48;4.40;99.90
7196;DHT22;3639;51.308;5.624;2022-12-07T09:02:14;4.50;99.90
7196;DHT22;3639;51.308;5.624;2022-12-07T09:04:40;4.40;99.90
7196;DHT22;3639;51.308;5.624;2022-12-07T09:07:05;4.50;99.90
7196;DHT22;3639;51.308;5.624;2022-12-07T09:09:32;4.40;99.90
7196;DHT22;3639;51.308;5.624;2022-12-07T09:11:57;4.40;99.90
7196;DHT22;3639;51.308;5.624;2022-12-07T09:14:23;4.40;99.90
7196;DHT22;3639;51.308;5.624;2022-12-07T09:16:49;4.40;99.90
7196;DHT22;3639;51.308;5.624;2022-12-07T09:19:15;4.40;99.90
7196;DHT22;3639;51.308;5.624;2022-12-07T09:21:41;4.40;99.90
7196;DHT22;3639;51.308;5.624;2022-12-07T09:24:07;4.40;99.90
7196;DHT22;3639;51.308;5.624;2022-12-07T09:26:33;4.50;99.90
7196;DHT22;3639;51.308;5.624;2022-12-07T09:29:01;4.60;99.90
7196;DHT22;3639;51.308;5.624;2022-12-07T09:31:27;4.70;99.90
7196;DHT22;3639;51.308;5.624;2022-12-07T09:34:00;4.80;99.90
7196;DHT22;3639;51.308;5.624;2022-12-07T09:36:27;4.90;99.90
7196;DHT22;3639;51.308;5.624;2022-12-07T09:38:52;5.00;99.90
7196;DHT22;3639;51.308;5.624;2022-12-07T09:41:18;5.10;99.90
7196;DHT22;3639;51.308;5.624;2022-12-07T09:43:44;5.10;99.90
7196;DHT22;3639;51.308;5.624;2022-12-07T09:46:16;5.10;99.90
7196;DHT22;3639;51.308;5.624;2022-12-07T09:48:44;5.20;99.90
7196;DHT22;3639;51.308;5.624;2022-12-07T09:51:19;5.20;99.90
7196;DHT22;3639;51.308;5.624;2022-12-07T09:53:46;5.20;99.90
7196;DHT22;3639;51.308;5.624;2022-12-07T09:56:17;5.30;99.90
7196;DHT22;3639;51.308;5.624;2022-12-07T09:58:43;5.30;99.90
7196;DHT22;3639;51.308;5.624;2022-12-07T10:01:19;5.40;99.90
7196;DHT22;3639;51.308;5.624;2022-12-07T10:04:02;5.40;99.90
7196;DHT22;3639;51.308;5.624;2022-12-07T10:06:32;5.50;99.90
7196;DHT22;3639;51.308;5.624;2022-12-07T10:08:57;5.60;99.90
7196;DHT22;3639;51.308;5.624;2022-12-07T10:11:23;5.60;99.90
7196;DHT22;3639;51.308;5.624;2022-12-07T10:13:52;5.60;99.90
7196;DHT22;3639;51.308;5.624;2022-12-07T10:18:53;5.60;99.90
7196;DHT22;3639;51.308;5.624;2022-12-07T10:21:28;5.70;99.90
7196;DHT22;3639;51.308;5.624;2022-12-07T10:24:05;5.70;99.90
7196;DHT22;3639;51.308;5.624;2022-12-07T10:26:34;5.70;99.90
7196;DHT22;3639;51.308;5.624;2022-12-07T10:31:46;5.60;99.90
7196;DHT22;3639;51.308;5.624;2022-12-07T10:36:47;5.50;99.90
7196;DHT22;3639;51.308;5.624;2022-12-07T10:39:15;5.50;99.90
7196;DHT22;3639;51.308;5.624;2022-12-07T10:42:01;5.50;99.90
7196;DHT22;3639;51.308;5.624;2022-12-07T10:44:32;5.50;99.90
7196;DHT22;3639;51.308;5.624;2022-12-07T10:47:18;5.50;99.90
7196;DHT22;3639;51.308;5.624;2022-12-07T10:49:53;5.60;99.90
7196;DHT22;3639;51.308;5.624;2022-12-07T10:55:46;5.70;99.90
7196;DHT22;3639;51.308;5.624;2022-12-07T11:06:36;6.10;99.90
7196;DHT22;3639;51.308;5.624;2022-12-07T11:12:10;6.30;99.90
7196;DHT22;3639;51.308;5.624;2022-12-07T11:15:19;6.40;99.90
7196;DHT22;3639;51.308;5.624;2022-12-07T11:38:01;6.40;99.90
7196;DHT22;3639;51.308;5.624;2022-12-07T11:40:34;6.50;99.90
7196;DHT22;3639;51.308;5.624;2022-12-07T11:43:05;6.60;99.90
7196;DHT22;3639;51.308;5.624;2022-12-07T11:45:34;6.70;99.90
7196;DHT22;3639;51.308;5.624;2022-12-07T11:48:07;6.80;99.90
7196;DHT22;3639;51.308;5.624;2022-12-07T11:50:48;6.90;99.90
7196;DHT22;3639;51.308;5.624;2022-12-07T11:53:18;6.90;99.90
7196;DHT22;3639;51.308;5.624;2022-12-07T11:56:09;6.90;99.90
7196;DHT22;3639;51.308;5.624;2022-12-07T12:01:18;7.10;99.90
7196;DHT22;3639;51.308;5.624;2022-12-07T12:03:50;7.20;99.90
7196;DHT22;3639;51.308;5.624;2022-12-07T12:06:16;7.30;99.90
7196;DHT22;3639;51.308;5.624;2022-12-07T12:09:04;7.40;99.90
7196;DHT22;3639;51.308;5.624;2022-12-07T12:22:37;7.40;99.90
7196;DHT22;3639;51.308;5.624;2022-12-07T12:25:06;7.50;99.90
7196;DHT22;3639;51.308;5.624;2022-12-07T12:27:36;7.50;99.90
7196;DHT22;3639;51.308;5.624;2022-12-07T12:30:05;7.40;99.90
7196;DHT22;3639;51.308;5.624;2022-12-07T12:32:42;7.30;99.90
7196;DHT22;3639;51.308;5.624;2022-12-07T12:38:34;7.30;99.90
7196;DHT22;3639;51.308;5.624;2022-12-07T12:51:43;6.90;99.90
7196;DHT22;3639;51.308;5.624;2022-12-07T12:54:19;6.70;99.90
7196;DHT22;3639;51.308;5.624;2022-12-07T12:57:04;6.70;99.90
7196;DHT22;3639;51.308;5.624;2022-12-07T12:59:57;6.60;99.90
7196;DHT22;3639;51.308;5.624;2022-12-07T13:02:27;6.50;99.90
7196;DHT22;3639;51.308;5.624;2022-12-07T13:04:56;6.40;99.90
7196;DHT22;3639;51.308;5.624;2022-12-07T13:15:47;6.10;99.90
7196;DHT22;3639;51.308;5.624;2022-12-07T13:31:54;6.10;99.90
7196;DHT22;3639;51.308;5.624;2022-12-07T13:34:35;6.20;99.90
7196;DHT22;3639;51.308;5.624;2022-12-07T13:39:54;6.30;99.90
7196;DHT22;3639;51.308;5.624;2022-12-07T13:42:31;6.40;99.90
7196;DHT22;3639;51.308;5.624;2022-12-07T13:44:59;6.50;99.90
7196;DHT22;3639;51.308;5.624;2022-12-07T13:49:55;6.50;99.90
7196;DHT22;3639;51.308;5.624;2022-12-07T13:52:27;6.50;99.90
7196;DHT22;3639;51.308;5.624;2022-12-07T13:57:25;6.50;99.90
7196;DHT22;3639;51.308;5.624;2022-12-07T13:59:51;6.60;99.90
7196;DHT22;3639;51.308;5.624;2022-12-07T14:05:12;6.50;99.90
7196;DHT22;3639;51.308;5.624;2022-12-07T14:08:00;6.50;99.90
7196;DHT22;3639;51.308;5.624;2022-12-07T14:10:33;6.40;99.90
7196;DHT22;3639;51.308;5.624;2022-12-07T14:13:01;6.30;99.90
7196;DHT22;3639;51.308;5.624;2022-12-07T14:17:56;6.20;99.90
7196;DHT22;3639;51.308;5.624;2022-12-07T14:20:30;6.20;99.90
7196;DHT22;3639;51.308;5.624;2022-12-07T14:22:59;6.20;99.90
7196;DHT22;3639;51.308;5.624;2022-12-07T14:25:47;6.10;99.90
7196;DHT22;3639;51.308;5.624;2022-12-07T14:28:34;6.10;99.90
7196;DHT22;3639;51.308;5.624;2022-12-07T14:31:01;6.00;99.90
7196;DHT22;3639;51.308;5.624;2022-12-07T14:33:27;6.00;99.90
7196;DHT22;3639;51.308;5.624;2022-12-07T14:35:53;6.00;99.90
7196;DHT22;3639;51.308;5.624;2022-12-07T14:38:24;6.00;99.90
7196;DHT22;3639;51.308;5.624;2022-12-07T14:40:51;6.00;99.90
7196;DHT22;3639;51.308;5.624;2022-12-07T14:43:17;5.90;99.90
7196;DHT22;3639;51.308;5.624;2022-12-07T14:45:44;5.90;99.90
7196;DHT22;3639;51.308;5.624;2022-12-07T14:48:16;5.80;99.90
7196;DHT22;3639;51.308;5.624;2022-12-07T14:50:49;5.70;99.90
7196;DHT22;3639;51.308;5.624;2022-12-07T14:53:17;5.80;99.90
7196;DHT22;3639;51.308;5.624;2022-12-07T14:55:44;5.80;99.90
7196;DHT22;3639;51.308;5.624;2022-12-07T14:58:16;5.80;99.90
7196;DHT22;3639;51.308;5.624;2022-12-07T15:00:42;5.80;99.90
7196;DHT22;3639;51.308;5.624;2022-12-07T15:03:08;5.90;99.90
7196;DHT22;3639;51.308;5.624;2022-12-07T15:05:35;5.90;99.90
7196;DHT22;3639;51.308;5.624;2022-12-07T15:08:01;5.90;99.90
7196;DHT22;3639;51.308;5.624;2022-12-07T15:10:30;5.90;99.90
7196;DHT22;3639;51.308;5.624;2022-12-07T15:13:01;5.90;99.90
7196;DHT22;3639;51.308;5.624;2022-12-07T15:15:49;5.80;99.90
7196;DHT22;3639;51.308;5.624;2022-12-07T15:18:16;5.90;99.90
7196;DHT22;3639;51.308;5.624;2022-12-07T15:20:42;5.80;99.90
7196;DHT22;3639;51.308;5.624;2022-12-07T15:23:09;5.90;99.90
7196;DHT22;3639;51.308;5.624;2022-12-07T15:25:34;5.80;99.90
7196;DHT22;3639;51.308;5.624;2022-12-07T15:28:00;5.80;99.90
7196;DHT22;3639;51.308;5.624;2022-12-07T15:30:26;5.80;99.90
7196;DHT22;3639;51.308;5.624;2022-12-07T15:32:52;5.80;99.90
7196;DHT22;3639;51.308;5.624;2022-12-07T15:35:19;5.70;99.90
7196;DHT22;3639;51.308;5.624;2022-12-07T15:37:45;5.70;99.90
7196;DHT22;3639;51.308;5.624;2022-12-07T15:40:11;5.70;99.90
7196;DHT22;3639;51.308;5.624;2022-12-07T15:42:37;5.70;99.90
7196;DHT22;3639;51.308;5.624;2022-12-07T15:45:04;5.70;99.90
7196;DHT22;3639;51.308;5.624;2022-12-07T15:47:35;5.60;99.90
7196;DHT22;3639;51.308;5.624;2022-12-07T15:50:06;5.50;99.90
7196;DHT22;3639;51.308;5.624;2022-12-07T15:52:33;5.50;99.90
7196;DHT22;3639;51.308;5.624;2022-12-07T15:54:58;5.40;99.90
7196;DHT22;3639;51.308;5.624;2022-12-07T15:57:32;5.30;99.90
7196;DHT22;3639;51.308;5.624;2022-12-07T15:59:58;5.10;99.90
7196;DHT22;3639;51.308;5.624;2022-12-07T16:02:24;5.10;99.90
7196;DHT22;3639;51.308;5.624;2022-12-07T16:04:51;5.00;99.90
7196;DHT22;3639;51.308;5.624;2022-12-07T16:07:17;5.00;99.90
7196;DHT22;3639;51.308;5.624;2022-12-07T16:09:44;4.90;99.90
7196;DHT22;3639;51.308;5.624;2022-12-07T16:12:12;4.90;99.90
7196;DHT22;3639;51.308;5.624;2022-12-07T16:14:39;4.80;99.90
7196;DHT22;3639;51.308;5.624;2022-12-07T16:17:05;4.90;99.90
7196;DHT22;3639;51.308;5.624;2022-12-07T16:19:33;4.90;99.90
7196;DHT22;3639;51.308;5.624;2022-12-07T16:21:58;4.90;99.90
7196;DHT22;3639;51.308;5.624;2022-12-07T16:24:24;4.90;99.90
7196;DHT22;3639;51.308;5.624;2022-12-07T16:26:50;4.90;99.90
7196;DHT22;3639;51.308;5.624;2022-12-07T16:29:18;4.90;99.90
7196;DHT22;3639;51.308;5.624;2022-12-07T16:31:44;5.00;99.90
7196;DHT22;3639;51.308;5.624;2022-12-07T16:34:10;5.00;99.90
7196;DHT22;3639;51.308;5.624;2022-12-07T16:36:35;5.00;99.90
7196;DHT22;3639;51.308;5.624;2022-12-07T16:39:02;5.00;99.90
7196;DHT22;3639;51.308;5.624;2022-12-07T16:41:28;5.10;99.90
7196;DHT22;3639;51.308;5.624;2022-12-07T16:43:53;5.10;99.90
7196;DHT22;3639;51.308;5.624;2022-12-07T16:46:19;5.10;99.90
7196;DHT22;3639;51.308;5.624;2022-12-07T16:48:45;5.10;99.90
7196;DHT22;3639;51.308;5.624;2022-12-07T16:51:12;5.10;99.90
7196;DHT22;3639;51.308;5.624;2022-12-07T16:53:40;5.10;99.90
7196;DHT22;3639;51.308;5.624;2022-12-07T16:56:14;5.10;99.90
7196;DHT22;3639;51.308;5.624;2022-12-07T16:58:41;5.10;99.90
7196;DHT22;3639;51.308;5.624;2022-12-07T17:01:11;5.10;99.90
7196;DHT22;3639;51.308;5.624;2022-12-07T17:03:37;5.10;99.90
7196;DHT22;3639;51.308;5.624;2022-12-07T17:06:03;5.20;99.90
7196;DHT22;3639;51.308;5.624;2022-12-07T17:08:29;5.20;99.90
7196;DHT22;3639;51.308;5.624;2022-12-07T17:10:54;5.20;99.90
7196;DHT22;3639;51.308;5.624;2022-12-07T17:13:20;5.30;99.90
7196;DHT22;3639;51.308;5.624;2022-12-07T17:16:05;5.30;99.90
7196;DHT22;3639;51.308;5.624;2022-12-07T17:18:35;5.30;99.90
7196;DHT22;3639;51.308;5.624;2022-12-07T17:21:06;5.30;99.90
7196;DHT22;3639;51.308;5.624;2022-12-07T17:23:32;5.20;99.90
7196;DHT22;3639;51.308;5.624;2022-12-07T17:26:06;5.30;99.90
7196;DHT22;3639;51.308;5.624;2022-12-07T17:28:32;5.30;99.90
7196;DHT22;3639;51.308;5.624;2022-12-07T17:30:58;5.30;99.90
7196;DHT22;3639;51.308;5.624;2022-12-07T17:33:24;5.30;99.90
7196;DHT22;3639;51.308;5.624;2022-12-07T17:35:49;5.40;99.90
7196;DHT22;3639;51.308;5.624;2022-12-07T17:38:15;5.30;99.90
7196;DHT22;3639;51.308;5.624;2022-12-07T17:40:40;5.40;99.90
7196;DHT22;3639;51.308;5.624;2022-12-07T17:43:06;5.30;99.90
7196;DHT22;3639;51.308;5.624;2022-12-07T17:45:32;5.30;99.90
7196;DHT22;3639;51.308;5.624;2022-12-07T17:47:57;5.30;99.90
7196;DHT22;3639;51.308;5.624;2022-12-07T17:50:23;5.30;99.90
7196;DHT22;3639;51.308;5.624;2022-12-07T17:53:12;5.40;99.90
7196;DHT22;3639;51.308;5.624;2022-12-07T17:55:38;5.30;99.90
7196;DHT22;3639;51.308;5.624;2022-12-07T17:58:05;5.30;99.90
7196;DHT22;3639;51.308;5.624;2022-12-07T18:00:30;5.30;99.90
7196;DHT22;3639;51.308;5.624;2022-12-07T18:03:05;5.20;99.90
7196;DHT22;3639;51.308;5.624;2022-12-07T18:05:33;5.20;99.90
7196;DHT22;3639;51.308;5.624;2022-12-07T18:07:58;5.10;99.90
7196;DHT22;3639;51.308;5.624;2022-12-07T18:10:24;5.10;99.90
7196;DHT22;3639;51.308;5.624;2022-12-07T18:12:50;5.00;99.90
7196;DHT22;3639;51.308;5.624;2022-12-07T18:15:15;5.00;99.90
7196;DHT22;3639;51.308;5.624;2022-12-07T18:17:41;4.90;99.90
7196;DHT22;3639;51.308;5.624;2022-12-07T18:20:07;4.80;99.90
7196;DHT22;3639;51.308;5.624;2022-12-07T18:22:33;4.90;99.90
7196;DHT22;3639;51.308;5.624;2022-12-07T18:24:58;4.80;99.90
7196;DHT22;3639;51.308;5.624;2022-12-07T18:27:24;4.80;99.90
7196;DHT22;3639;51.308;5.624;2022-12-07T18:29:49;4.80;99.90
7196;DHT22;3639;51.308;5.624;2022-12-07T18:32:15;4.80;99.90
7196;DHT22;3639;51.308;5.624;2022-12-07T18:34:41;4.80;99.90
7196;DHT22;3639;51.308;5.624;2022-12-07T18:37:07;4.80;99.90
7196;DHT22;3639;51.308;5.624;2022-12-07T18:39:32;4.80;99.90
7196;DHT22;3639;51.308;5.624;2022-12-07T18:41:58;4.80;99.90
7196;DHT22;3639;51.308;5.624;2022-12-07T18:44:23;4.80;99.90